sensor_id;sensor_type;location;lat;lon;timestamp;P1;durP1;ratioP1;P2;durP2;ratioP2
44145;SDS011;29809;52.432;4.780;2022-07-21T00:01:57;11.15;;;5.50;;
44145;SDS011;29809;52.432;4.780;2022-07-21T00:04:22;10.35;;;6.22;;
44145;SDS011;29809;52.432;4.780;2022-07-21T00:06:47;7.70;;;5.32;;
44145;SDS011;29809;52.432;4.780;2022-07-21T00:09:13;7.45;;;5.85;;
44145;SDS011;29809;52.432;4.780;2022-07-21T00:11:39;9.93;;;6.13;;
44145;SDS011;29809;52.432;4.780;2022-07-21T00:14:05;7.13;;;5.70;;
44145;SDS011;29809;52.432;4.780;2022-07-21T00:16:31;9.30;;;6.47;;
44145;SDS011;29809;52.432;4.780;2022-07-21T00:18:56;19.52;;;7.43;;
44145;SDS011;29809;52.432;4.780;2022-07-21T00:21:21;10.73;;;5.97;;
44145;SDS011;29809;52.432;4.780;2022-07-21T00:23:47;10.02;;;6.28;;
44145;SDS011;29809;52.432;4.780;2022-07-21T00:26:12;7.63;;;5.63;;
44145;SDS011;29809;52.432;4.780;2022-07-21T00:28:37;12.63;;;7.13;;
44145;SDS011;29809;52.432;4.780;2022-07-21T00:31:03;11.57;;;6.63;;
44145;SDS011;29809;52.432;4.780;2022-07-21T00:33:28;12.50;;;6.28;;
44145;SDS011;29809;52.432;4.780;2022-07-21T00:35:53;10.00;;;6.15;;
44145;SDS011;29809;52.432;4.780;2022-07-21T00:38:18;10.00;;;6.22;;
44145;SDS011;29809;52.432;4.780;2022-07-21T00:40:44;10.23;;;6.93;;
44145;SDS011;29809;52.432;4.780;2022-07-21T00:43:09;14.00;;;6.25;;
44145;SDS011;29809;52.432;4.780;2022-07-21T00:45:35;10.02;;;6.35;;
44145;SDS011;29809;52.432;4.780;2022-07-21T00:48:00;7.75;;;5.80;;
44145;SDS011;29809;52.432;4.780;2022-07-21T00:50:26;10.30;;;6.15;;
44145;SDS011;29809;52.432;4.780;2022-07-21T00:52:51;8.40;;;5.40;;
44145;SDS011;29809;52.432;4.780;2022-07-21T00:55:17;12.95;;;6.32;;
44145;SDS011;29809;52.432;4.780;2022-07-21T00:57:43;11.68;;;6.20;;
44145;SDS011;29809;52.432;4.780;2022-07-21T01:00:11;13.35;;;5.97;;
44145;SDS011;29809;52.432;4.780;2022-07-21T01:02:38;11.18;;;6.00;;
44145;SDS011;29809;52.432;4.780;2022-07-21T01:05:04;10.52;;;6.07;;
44145;SDS011;29809;52.432;4.780;2022-07-21T01:07:30;8.27;;;5.85;;
44145;SDS011;29809;52.432;4.780;2022-07-21T01:09:55;7.53;;;5.57;;
44145;SDS011;29809;52.432;4.780;2022-07-21T01:12:20;9.23;;;5.78;;
44145;SDS011;29809;52.432;4.780;2022-07-21T01:14:46;9.35;;;5.75;;
44145;SDS011;29809;52.432;4.780;2022-07-21T01:17:11;8.10;;;5.50;;
44145;SDS011;29809;52.432;4.780;2022-07-21T01:19:36;7.88;;;6.07;;
44145;SDS011;29809;52.432;4.780;2022-07-21T01:22:02;8.82;;;7.20;;
44145;SDS011;29809;52.432;4.780;2022-07-21T01:24:28;11.60;;;9.20;;
44145;SDS011;29809;52.432;4.780;2022-07-21T01:26:53;12.90;;;9.70;;
44145;SDS011;29809;52.432;4.780;2022-07-21T01:29:19;10.57;;;8.80;;
44145;SDS011;29809;52.432;4.780;2022-07-21T01:31:45;12.23;;;8.68;;
44145;SDS011;29809;52.432;4.780;2022-07-21T01:34:10;12.05;;;10.20;;
44145;SDS011;29809;52.432;4.780;2022-07-21T01:36:36;11.60;;;10.50;;
44145;SDS011;29809;52.432;4.780;2022-07-21T01:39:01;13.02;;;11.52;;
44145;SDS011;29809;52.432;4.780;2022-07-21T01:41:45;12.65;;;11.48;;
44145;SDS011;29809;52.432;4.780;2022-07-21T01:44:11;11.90;;;10.45;;
44145;SDS011;29809;52.432;4.780;2022-07-21T01:46:38;11.65;;;10.45;;
44145;SDS011;29809;52.432;4.780;2022-07-21T01:49:04;14.00;;;12.57;;
44145;SDS011;29809;52.432;4.780;2022-07-21T01:51:29;13.52;;;12.27;;
44145;SDS011;29809;52.432;4.780;2022-07-21T01:53:55;15.80;;;14.13;;
44145;SDS011;29809;52.432;4.780;2022-07-21T01:56:20;15.60;;;14.10;;
44145;SDS011;29809;52.432;4.780;2022-07-21T01:58:47;17.13;;;15.52;;
44145;SDS011;29809;52.432;4.780;2022-07-21T02:01:12;16.35;;;14.85;;
44145;SDS011;29809;52.432;4.780;2022-07-21T02:03:37;14.15;;;12.85;;
44145;SDS011;29809;52.432;4.780;2022-07-21T02:06:03;14.48;;;13.02;;
44145;SDS011;29809;52.432;4.780;2022-07-21T02:08:29;14.90;;;13.50;;
44145;SDS011;29809;52.432;4.780;2022-07-21T02:10:54;13.73;;;12.52;;
44145;SDS011;29809;52.432;4.780;2022-07-21T02:13:20;15.65;;;14.15;;
44145;SDS011;29809;52.432;4.780;2022-07-21T02:15:45;15.55;;;14.15;;
44145;SDS011;29809;52.432;4.780;2022-07-21T02:18:10;14.65;;;13.25;;
44145;SDS011;29809;52.432;4.780;2022-07-21T02:20:35;15.18;;;13.75;;
44145;SDS011;29809;52.432;4.780;2022-07-21T02:23:01;14.38;;;13.10;;
44145;SDS011;29809;52.432;4.780;2022-07-21T02:25:26;14.02;;;12.73;;
44145;SDS011;29809;52.432;4.780;2022-07-21T02:27:51;15.02;;;13.60;;
44145;SDS011;29809;52.432;4.780;2022-07-21T02:30:17;14.25;;;12.85;;
44145;SDS011;29809;52.432;4.780;2022-07-21T02:32:42;15.07;;;13.68;;
44145;SDS011;29809;52.432;4.780;2022-07-21T02:35:08;14.82;;;13.25;;
44145;SDS011;29809;52.432;4.780;2022-07-21T02:37:33;15.55;;;14.05;;
44145;SDS011;29809;52.432;4.780;2022-07-21T02:39:58;13.45;;;12.18;;
44145;SDS011;29809;52.432;4.780;2022-07-21T02:42:23;14.13;;;12.68;;
44145;SDS011;29809;52.432;4.780;2022-07-21T02:44:49;14.20;;;12.80;;
44145;SDS011;29809;52.432;4.780;2022-07-21T02:47:14;14.43;;;13.00;;
44145;SDS011;29809;52.432;4.780;2022-07-21T02:49:39;14.13;;;12.73;;
44145;SDS011;29809;52.432;4.780;2022-07-21T02:52:05;15.07;;;13.77;;
44145;SDS011;29809;52.432;4.780;2022-07-21T02:54:30;12.80;;;11.48;;
44145;SDS011;29809;52.432;4.780;2022-07-21T02:56:56;14.00;;;12.75;;
44145;SDS011;29809;52.432;4.780;2022-07-21T02:59:21;13.98;;;12.68;;
44145;SDS011;29809;52.432;4.780;2022-07-21T03:01:46;14.48;;;13.18;;
44145;SDS011;29809;52.432;4.780;2022-07-21T03:04:12;14.85;;;13.55;;
44145;SDS011;29809;52.432;4.780;2022-07-21T03:06:37;15.23;;;13.68;;
44145;SDS011;29809;52.432;4.780;2022-07-21T03:09:03;14.85;;;13.55;;
44145;SDS011;29809;52.432;4.780;2022-07-21T03:11:28;15.88;;;14.38;;
44145;SDS011;29809;52.432;4.780;2022-07-21T03:13:53;14.98;;;13.63;;
44145;SDS011;29809;52.432;4.780;2022-07-21T03:16:18;15.18;;;13.68;;
44145;SDS011;29809;52.432;4.780;2022-07-21T03:18:43;13.75;;;12.45;;
44145;SDS011;29809;52.432;4.780;2022-07-21T03:21:09;15.63;;;14.32;;
44145;SDS011;29809;52.432;4.780;2022-07-21T03:23:34;17.35;;;14.07;;
44145;SDS011;29809;52.432;4.780;2022-07-21T03:25:59;16.45;;;14.75;;
44145;SDS011;29809;52.432;4.780;2022-07-21T03:28:24;16.42;;;14.80;;
44145;SDS011;29809;52.432;4.780;2022-07-21T03:30:50;14.60;;;13.15;;
44145;SDS011;29809;52.432;4.780;2022-07-21T03:33:15;15.15;;;13.77;;
44145;SDS011;29809;52.432;4.780;2022-07-21T03:35:40;13.52;;;12.05;;
44145;SDS011;29809;52.432;4.780;2022-07-21T03:38:07;13.68;;;12.45;;
44145;SDS011;29809;52.432;4.780;2022-07-21T03:40:33;15.48;;;13.90;;
44145;SDS011;29809;52.432;4.780;2022-07-21T03:42:59;16.30;;;14.80;;
44145;SDS011;29809;52.432;4.780;2022-07-21T03:45:25;15.57;;;14.05;;
44145;SDS011;29809;52.432;4.780;2022-07-21T03:47:51;14.93;;;13.50;;
44145;SDS011;29809;52.432;4.780;2022-07-21T03:50:17;15.90;;;14.43;;
44145;SDS011;29809;52.432;4.780;2022-07-21T03:52:43;15.43;;;14.02;;
44145;SDS011;29809;52.432;4.780;2022-07-21T03:55:08;15.27;;;13.88;;
44145;SDS011;29809;52.432;4.780;2022-07-21T03:57:37;16.25;;;14.57;;
44145;SDS011;29809;52.432;4.780;2022-07-21T04:00:07;17.13;;;15.45;;
44145;SDS011;29809;52.432;4.780;2022-07-21T04:02:33;16.85;;;15.15;;
44145;SDS011;29809;52.432;4.780;2022-07-21T04:04:58;18.52;;;16.85;;
44145;SDS011;29809;52.432;4.780;2022-07-21T04:07:23;19.42;;;17.67;;
44145;SDS011;29809;52.432;4.780;2022-07-21T04:09:49;19.85;;;17.92;;
44145;SDS011;29809;52.432;4.780;2022-07-21T04:12:14;19.20;;;17.40;;
44145;SDS011;29809;52.432;4.780;2022-07-21T04:14:39;20.33;;;18.40;;
44145;SDS011;29809;52.432;4.780;2022-07-21T04:17:04;22.63;;;20.38;;
44145;SDS011;29809;52.432;4.780;2022-07-21T04:19:29;20.65;;;18.85;;
44145;SDS011;29809;52.432;4.780;2022-07-21T04:21:55;21.67;;;19.58;;
44145;SDS011;29809;52.432;4.780;2022-07-21T04:24:20;19.90;;;17.85;;
44145;SDS011;29809;52.432;4.780;2022-07-21T04:26:45;20.63;;;16.60;;
44145;SDS011;29809;52.432;4.780;2022-07-21T04:29:10;18.30;;;16.70;;
44145;SDS011;29809;52.432;4.780;2022-07-21T04:31:36;18.58;;;16.63;;
44145;SDS011;29809;52.432;4.780;2022-07-21T04:34:01;18.00;;;16.13;;
44145;SDS011;29809;52.432;4.780;2022-07-21T04:36:26;18.73;;;16.83;;
44145;SDS011;29809;52.432;4.780;2022-07-21T04:38:51;18.27;;;16.48;;
44145;SDS011;29809;52.432;4.780;2022-07-21T04:41:17;18.73;;;16.83;;
44145;SDS011;29809;52.432;4.780;2022-07-21T04:43:42;19.20;;;16.55;;
44145;SDS011;29809;52.432;4.780;2022-07-21T04:46:07;22.23;;;18.30;;
44145;SDS011;29809;52.432;4.780;2022-07-21T04:48:32;20.15;;;18.27;;
44145;SDS011;29809;52.432;4.780;2022-07-21T04:50:58;19.38;;;17.40;;
44145;SDS011;29809;52.432;4.780;2022-07-21T04:53:23;19.02;;;17.17;;
44145;SDS011;29809;52.432;4.780;2022-07-21T04:55:48;19.05;;;17.13;;
44145;SDS011;29809;52.432;4.780;2022-07-21T04:58:15;19.10;;;17.20;;
44145;SDS011;29809;52.432;4.780;2022-07-21T05:00:40;19.73;;;17.75;;
44145;SDS011;29809;52.432;4.780;2022-07-21T05:03:05;19.02;;;17.10;;
44145;SDS011;29809;52.432;4.780;2022-07-21T05:05:31;22.10;;;16.50;;
44145;SDS011;29809;52.432;4.780;2022-07-21T05:07:56;299.83;;;82.63;;
44145;SDS011;29809;52.432;4.780;2022-07-21T05:10:21;211.15;;;60.03;;
44145;SDS011;29809;52.432;4.780;2022-07-21T05:12:46;171.05;;;54.20;;
44145;SDS011;29809;52.432;4.780;2022-07-21T05:15:12;62.30;;;29.98;;
44145;SDS011;29809;52.432;4.780;2022-07-21T05:17:37;53.65;;;27.08;;
44145;SDS011;29809;52.432;4.780;2022-07-21T05:20:03;41.13;;;23.48;;
44145;SDS011;29809;52.432;4.780;2022-07-21T05:22:29;26.38;;;19.85;;
44145;SDS011;29809;52.432;4.780;2022-07-21T05:24:54;21.15;;;18.92;;
44145;SDS011;29809;52.432;4.780;2022-07-21T05:27:19;23.58;;;20.27;;
44145;SDS011;29809;52.432;4.780;2022-07-21T05:29:44;19.52;;;17.52;;
44145;SDS011;29809;52.432;4.780;2022-07-21T05:32:10;18.67;;;16.23;;
44145;SDS011;29809;52.432;4.780;2022-07-21T05:34:35;18.23;;;16.40;;
44145;SDS011;29809;52.432;4.780;2022-07-21T05:37:01;18.38;;;16.50;;
44145;SDS011;29809;52.432;4.780;2022-07-21T05:39:26;17.63;;;15.95;;
44145;SDS011;29809;52.432;4.780;2022-07-21T05:41:51;17.98;;;16.10;;
44145;SDS011;29809;52.432;4.780;2022-07-21T05:44:16;17.15;;;15.57;;
44145;SDS011;29809;52.432;4.780;2022-07-21T05:46:41;15.98;;;14.57;;
44145;SDS011;29809;52.432;4.780;2022-07-21T05:49:07;16.42;;;14.93;;
44145;SDS011;29809;52.432;4.780;2022-07-21T05:51:32;18.13;;;16.35;;
44145;SDS011;29809;52.432;4.780;2022-07-21T05:53:57;17.50;;;15.77;;
44145;SDS011;29809;52.432;4.780;2022-07-21T05:56:22;17.50;;;15.90;;
44145;SDS011;29809;52.432;4.780;2022-07-21T05:58:47;17.33;;;15.80;;
44145;SDS011;29809;52.432;4.780;2022-07-21T06:01:13;18.20;;;16.50;;
44145;SDS011;29809;52.432;4.780;2022-07-21T06:03:39;18.60;;;16.95;;
44145;SDS011;29809;52.432;4.780;2022-07-21T06:06:05;18.65;;;16.98;;
44145;SDS011;29809;52.432;4.780;2022-07-21T06:08:30;20.10;;;18.13;;
44145;SDS011;29809;52.432;4.780;2022-07-21T06:10:56;18.98;;;17.08;;
44145;SDS011;29809;52.432;4.780;2022-07-21T06:13:21;18.42;;;16.65;;
44145;SDS011;29809;52.432;4.780;2022-07-21T06:15:46;20.67;;;18.60;;
44145;SDS011;29809;52.432;4.780;2022-07-21T06:18:12;21.17;;;19.17;;
44145;SDS011;29809;52.432;4.780;2022-07-21T06:20:37;23.52;;;17.83;;
44145;SDS011;29809;52.432;4.780;2022-07-21T06:23:02;24.27;;;18.33;;
44145;SDS011;29809;52.432;4.780;2022-07-21T06:25:27;20.58;;;18.48;;
44145;SDS011;29809;52.432;4.780;2022-07-21T06:27:53;20.45;;;18.08;;
44145;SDS011;29809;52.432;4.780;2022-07-21T06:30:18;21.52;;;19.30;;
44145;SDS011;29809;52.432;4.780;2022-07-21T06:32:43;20.40;;;17.42;;
44145;SDS011;29809;52.432;4.780;2022-07-21T06:35:09;18.83;;;16.92;;
44145;SDS011;29809;52.432;4.780;2022-07-21T06:37:34;18.25;;;16.42;;
44145;SDS011;29809;52.432;4.780;2022-07-21T06:39:59;17.48;;;15.77;;
44145;SDS011;29809;52.432;4.780;2022-07-21T06:42:25;18.60;;;16.65;;
44145;SDS011;29809;52.432;4.780;2022-07-21T06:44:50;18.27;;;15.52;;
44145;SDS011;29809;52.432;4.780;2022-07-21T06:47:15;22.08;;;15.60;;
44145;SDS011;29809;52.432;4.780;2022-07-21T06:49:41;17.45;;;14.32;;
44145;SDS011;29809;52.432;4.780;2022-07-21T06:52:06;18.92;;;13.85;;
44145;SDS011;29809;52.432;4.780;2022-07-21T06:54:31;24.25;;;15.10;;
44145;SDS011;29809;52.432;4.780;2022-07-21T06:56:56;18.98;;;13.40;;
44145;SDS011;29809;52.432;4.780;2022-07-21T06:59:22;24.40;;;16.25;;
44145;SDS011;29809;52.432;4.780;2022-07-21T07:01:47;20.67;;;15.25;;
44145;SDS011;29809;52.432;4.780;2022-07-21T07:04:12;21.63;;;16.00;;
44145;SDS011;29809;52.432;4.780;2022-07-21T07:06:37;20.45;;;15.15;;
44145;SDS011;29809;52.432;4.780;2022-07-21T07:09:03;19.02;;;14.10;;
44145;SDS011;29809;52.432;4.780;2022-07-21T07:11:28;23.00;;;15.65;;
44145;SDS011;29809;52.432;4.780;2022-07-21T07:13:53;19.48;;;15.10;;
44145;SDS011;29809;52.432;4.780;2022-07-21T07:16:18;17.50;;;14.32;;
44145;SDS011;29809;52.432;4.780;2022-07-21T07:18:44;16.33;;;13.85;;
44145;SDS011;29809;52.432;4.780;2022-07-21T07:21:09;18.02;;;12.80;;
44145;SDS011;29809;52.432;4.780;2022-07-21T07:23:34;20.95;;;14.48;;
44145;SDS011;29809;52.432;4.780;2022-07-21T07:26:00;17.30;;;13.48;;
44145;SDS011;29809;52.432;4.780;2022-07-21T07:28:25;17.77;;;13.35;;
44145;SDS011;29809;52.432;4.780;2022-07-21T07:30:50;21.63;;;14.00;;
44145;SDS011;29809;52.432;4.780;2022-07-21T07:33:15;17.73;;;12.40;;
44145;SDS011;29809;52.432;4.780;2022-07-21T07:35:41;22.13;;;15.32;;
44145;SDS011;29809;52.432;4.780;2022-07-21T07:38:06;21.65;;;12.30;;
44145;SDS011;29809;52.432;4.780;2022-07-21T07:40:31;20.73;;;13.40;;
44145;SDS011;29809;52.432;4.780;2022-07-21T07:42:57;17.67;;;13.38;;
44145;SDS011;29809;52.432;4.780;2022-07-21T07:45:22;13.50;;;11.60;;
44145;SDS011;29809;52.432;4.780;2022-07-21T07:47:48;13.23;;;11.27;;
44145;SDS011;29809;52.432;4.780;2022-07-21T07:50:13;12.82;;;10.50;;
44145;SDS011;29809;52.432;4.780;2022-07-21T07:52:39;13.52;;;10.27;;
44145;SDS011;29809;52.432;4.780;2022-07-21T07:55:05;12.82;;;9.70;;
44145;SDS011;29809;52.432;4.780;2022-07-21T07:57:33;12.13;;;9.95;;
44145;SDS011;29809;52.432;4.780;2022-07-21T07:59:58;12.75;;;9.43;;
44145;SDS011;29809;52.432;4.780;2022-07-21T08:02:24;10.13;;;8.73;;
44145;SDS011;29809;52.432;4.780;2022-07-21T08:04:49;12.88;;;8.68;;
44145;SDS011;29809;52.432;4.780;2022-07-21T08:07:15;10.88;;;9.40;;
44145;SDS011;29809;52.432;4.780;2022-07-21T08:09:40;13.00;;;8.30;;
44145;SDS011;29809;52.432;4.780;2022-07-21T08:12:06;11.95;;;8.50;;
44145;SDS011;29809;52.432;4.780;2022-07-21T08:14:32;10.43;;;8.00;;
44145;SDS011;29809;52.432;4.780;2022-07-21T08:16:57;10.32;;;7.97;;
44145;SDS011;29809;52.432;4.780;2022-07-21T08:19:23;12.05;;;7.90;;
44145;SDS011;29809;52.432;4.780;2022-07-21T08:21:49;12.52;;;7.47;;
44145;SDS011;29809;52.432;4.780;2022-07-21T08:24:14;8.25;;;7.22;;
44145;SDS011;29809;52.432;4.780;2022-07-21T08:26:39;8.18;;;6.80;;
44145;SDS011;29809;52.432;4.780;2022-07-21T08:29:04;7.55;;;6.35;;
44145;SDS011;29809;52.432;4.780;2022-07-21T08:31:30;5.43;;;4.93;;
44145;SDS011;29809;52.432;4.780;2022-07-21T08:33:55;6.50;;;5.03;;
44145;SDS011;29809;52.432;4.780;2022-07-21T08:36:20;4.72;;;3.80;;
44145;SDS011;29809;52.432;4.780;2022-07-21T08:38:46;4.00;;;3.60;;
44145;SDS011;29809;52.432;4.780;2022-07-21T08:41:11;5.22;;;4.03;;
44145;SDS011;29809;52.432;4.780;2022-07-21T08:43:36;5.95;;;3.50;;
44145;SDS011;29809;52.432;4.780;2022-07-21T08:46:02;4.28;;;3.25;;
44145;SDS011;29809;52.432;4.780;2022-07-21T08:48:27;5.60;;;3.35;;
44145;SDS011;29809;52.432;4.780;2022-07-21T08:50:54;5.85;;;3.80;;
44145;SDS011;29809;52.432;4.780;2022-07-21T08:53:19;7.03;;;3.70;;
44145;SDS011;29809;52.432;4.780;2022-07-21T08:55:45;6.82;;;4.20;;
44145;SDS011;29809;52.432;4.780;2022-07-21T08:58:11;6.63;;;4.55;;
44145;SDS011;29809;52.432;4.780;2022-07-21T09:00:37;6.05;;;4.60;;
44145;SDS011;29809;52.432;4.780;2022-07-21T09:03:10;4.80;;;4.35;;
44145;SDS011;29809;52.432;4.780;2022-07-21T09:05:36;6.75;;;4.60;;
44145;SDS011;29809;52.432;4.780;2022-07-21T09:08:01;9.30;;;5.05;;
44145;SDS011;29809;52.432;4.780;2022-07-21T09:10:27;8.15;;;5.30;;
44145;SDS011;29809;52.432;4.780;2022-07-21T09:12:54;6.90;;;4.88;;
44145;SDS011;29809;52.432;4.780;2022-07-21T09:15:20;9.20;;;5.68;;
44145;SDS011;29809;52.432;4.780;2022-07-21T09:17:46;9.13;;;5.25;;
44145;SDS011;29809;52.432;4.780;2022-07-21T09:20:27;6.82;;;5.03;;
44145;SDS011;29809;52.432;4.780;2022-07-21T09:25:33;9.32;;;5.03;;
44145;SDS011;29809;52.432;4.780;2022-07-21T09:28:12;7.53;;;5.28;;
44145;SDS011;29809;52.432;4.780;2022-07-21T09:35:57;7.55;;;4.97;;
44145;SDS011;29809;52.432;4.780;2022-07-21T09:38:22;7.32;;;5.28;;
44145;SDS011;29809;52.432;4.780;2022-07-21T09:40:48;4.90;;;4.40;;
44145;SDS011;29809;52.432;4.780;2022-07-21T09:46:02;5.72;;;4.63;;
44145;SDS011;29809;52.432;4.780;2022-07-21T09:48:32;5.68;;;4.30;;
44145;SDS011;29809;52.432;4.780;2022-07-21T09:50:57;8.77;;;5.13;;
44145;SDS011;29809;52.432;4.780;2022-07-21T09:53:49;7.03;;;4.32;;
44145;SDS011;29809;52.432;4.780;2022-07-21T09:56:16;6.05;;;4.43;;
44145;SDS011;29809;52.432;4.780;2022-07-21T09:58:41;4.40;;;3.85;;
44145;SDS011;29809;52.432;4.780;2022-07-21T10:01:06;5.53;;;4.38;;
44145;SDS011;29809;52.432;4.780;2022-07-21T10:03:32;5.10;;;4.07;;
44145;SDS011;29809;52.432;4.780;2022-07-21T10:05:57;4.88;;;3.78;;
44145;SDS011;29809;52.432;4.780;2022-07-21T10:08:23;4.32;;;3.50;;
44145;SDS011;29809;52.432;4.780;2022-07-21T10:10:48;3.38;;;3.08;;
44145;SDS011;29809;52.432;4.780;2022-07-21T10:13:13;7.03;;;3.70;;
44145;SDS011;29809;52.432;4.780;2022-07-21T10:15:39;5.35;;;3.60;;
44145;SDS011;29809;52.432;4.780;2022-07-21T10:18:04;4.65;;;3.05;;
44145;SDS011;29809;52.432;4.780;2022-07-21T10:20:31;6.55;;;3.60;;
44145;SDS011;29809;52.432;4.780;2022-07-21T10:23:10;6.13;;;3.47;;
44145;SDS011;29809;52.432;4.780;2022-07-21T10:25:37;4.03;;;3.20;;
44145;SDS011;29809;52.432;4.780;2022-07-21T10:28:19;7.78;;;3.67;;
44145;SDS011;29809;52.432;4.780;2022-07-21T10:30:52;4.82;;;3.80;;
44145;SDS011;29809;52.432;4.780;2022-07-21T10:33:22;5.75;;;3.70;;
44145;SDS011;29809;52.432;4.780;2022-07-21T10:36:06;5.88;;;3.40;;
44145;SDS011;29809;52.432;4.780;2022-07-21T10:38:32;4.13;;;3.35;;
44145;SDS011;29809;52.432;4.780;2022-07-21T10:40:58;4.60;;;3.55;;
44145;SDS011;29809;52.432;4.780;2022-07-21T10:45:49;3.92;;;3.10;;
44145;SDS011;29809;52.432;4.780;2022-07-21T10:50:59;4.43;;;3.40;;
44145;SDS011;29809;52.432;4.780;2022-07-21T10:53:24;3.50;;;3.20;;
44145;SDS011;29809;52.432;4.780;2022-07-21T10:55:50;4.63;;;3.05;;
44145;SDS011;29809;52.432;4.780;2022-07-21T11:00:51;4.53;;;2.75;;
44145;SDS011;29809;52.432;4.780;2022-07-21T11:06:16;4.65;;;2.72;;
44145;SDS011;29809;52.432;4.780;2022-07-21T11:11:26;3.28;;;2.20;;
44145;SDS011;29809;52.432;4.780;2022-07-21T11:16:46;2.20;;;2.03;;
44145;SDS011;29809;52.432;4.780;2022-07-21T11:19:28;3.25;;;1.85;;
44145;SDS011;29809;52.432;4.780;2022-07-21T11:21:53;2.85;;;2.13;;
44145;SDS011;29809;52.432;4.780;2022-07-21T11:24:19;2.55;;;1.60;;
44145;SDS011;29809;52.432;4.780;2022-07-21T11:26:52;2.75;;;2.33;;
44145;SDS011;29809;52.432;4.780;2022-07-21T11:29:18;3.92;;;2.38;;
44145;SDS011;29809;52.432;4.780;2022-07-21T11:31:46;4.10;;;2.53;;
44145;SDS011;29809;52.432;4.780;2022-07-21T11:34:12;6.47;;;2.70;;
44145;SDS011;29809;52.432;4.780;2022-07-21T11:36:37;8.20;;;2.95;;
44145;SDS011;29809;52.432;4.780;2022-07-21T11:39:04;5.68;;;2.90;;
44145;SDS011;29809;52.432;4.780;2022-07-21T11:41:30;4.55;;;2.83;;
44145;SDS011;29809;52.432;4.780;2022-07-21T11:43:55;4.05;;;2.90;;
44145;SDS011;29809;52.432;4.780;2022-07-21T11:46:20;4.80;;;3.53;;
44145;SDS011;29809;52.432;4.780;2022-07-21T11:48:46;4.15;;;3.75;;
44145;SDS011;29809;52.432;4.780;2022-07-21T11:51:11;5.50;;;3.80;;
44145;SDS011;29809;52.432;4.780;2022-07-21T11:53:36;6.07;;;4.40;;
44145;SDS011;29809;52.432;4.780;2022-07-21T11:56:16;5.95;;;4.57;;
44145;SDS011;29809;52.432;4.780;2022-07-21T11:58:42;5.43;;;4.30;;
44145;SDS011;29809;52.432;4.780;2022-07-21T12:01:08;6.53;;;4.50;;
44145;SDS011;29809;52.432;4.780;2022-07-21T12:03:33;5.85;;;4.63;;
44145;SDS011;29809;52.432;4.780;2022-07-21T12:05:59;7.63;;;4.03;;
44145;SDS011;29809;52.432;4.780;2022-07-21T12:08:25;6.18;;;4.45;;
44145;SDS011;29809;52.432;4.780;2022-07-21T12:10:50;5.68;;;4.40;;
44145;SDS011;29809;52.432;4.780;2022-07-21T12:13:16;4.90;;;4.13;;
44145;SDS011;29809;52.432;4.780;2022-07-21T12:15:41;5.38;;;4.18;;
44145;SDS011;29809;52.432;4.780;2022-07-21T12:18:07;7.53;;;3.85;;
44145;SDS011;29809;52.432;4.780;2022-07-21T12:20:37;4.65;;;3.97;;
44145;SDS011;29809;52.432;4.780;2022-07-21T12:25:44;3.70;;;3.35;;
44145;SDS011;29809;52.432;4.780;2022-07-21T12:28:10;4.22;;;3.90;;
44145;SDS011;29809;52.432;4.780;2022-07-21T12:30:39;4.80;;;3.67;;
44145;SDS011;29809;52.432;4.780;2022-07-21T12:33:09;3.55;;;3.25;;
44145;SDS011;29809;52.432;4.780;2022-07-21T12:35:35;4.20;;;3.80;;
44145;SDS011;29809;52.432;4.780;2022-07-21T12:38:05;3.95;;;3.40;;
44145;SDS011;29809;52.432;4.780;2022-07-21T12:40:32;4.20;;;3.30;;
44145;SDS011;29809;52.432;4.780;2022-07-21T12:43:07;3.90;;;3.40;;
44145;SDS011;29809;52.432;4.780;2022-07-21T12:45:43;4.22;;;3.47;;
44145;SDS011;29809;52.432;4.780;2022-07-21T12:48:09;4.72;;;3.88;;
44145;SDS011;29809;52.432;4.780;2022-07-21T12:50:35;5.95;;;3.47;;
44145;SDS011;29809;52.432;4.780;2022-07-21T12:53:03;4.80;;;3.83;;
44145;SDS011;29809;52.432;4.780;2022-07-21T12:55:28;3.92;;;3.53;;
44145;SDS011;29809;52.432;4.780;2022-07-21T12:57:54;3.40;;;3.10;;
44145;SDS011;29809;52.432;4.780;2022-07-21T13:00:19;4.85;;;3.50;;
44145;SDS011;29809;52.432;4.780;2022-07-21T13:02:45;3.72;;;2.95;;
44145;SDS011;29809;52.432;4.780;2022-07-21T13:05:11;4.50;;;3.65;;
44145;SDS011;29809;52.432;4.780;2022-07-21T13:07:36;4.13;;;3.55;;
44145;SDS011;29809;52.432;4.780;2022-07-21T13:10:01;5.53;;;3.75;;
44145;SDS011;29809;52.432;4.780;2022-07-21T13:12:26;4.25;;;3.60;;
44145;SDS011;29809;52.432;4.780;2022-07-21T13:14:52;3.72;;;3.33;;
44145;SDS011;29809;52.432;4.780;2022-07-21T13:17:17;4.85;;;3.80;;
44145;SDS011;29809;52.432;4.780;2022-07-21T13:19:42;3.97;;;3.58;;
44145;SDS011;29809;52.432;4.780;2022-07-21T13:22:07;3.70;;;3.40;;
44145;SDS011;29809;52.432;4.780;2022-07-21T13:24:32;4.00;;;3.65;;
44145;SDS011;29809;52.432;4.780;2022-07-21T13:26:58;4.30;;;3.90;;
44145;SDS011;29809;52.432;4.780;2022-07-21T13:29:23;4.82;;;3.67;;
44145;SDS011;29809;52.432;4.780;2022-07-21T13:31:48;3.90;;;3.60;;
44145;SDS011;29809;52.432;4.780;2022-07-21T13:34:13;4.50;;;3.80;;
44145;SDS011;29809;52.432;4.780;2022-07-21T13:36:39;4.47;;;4.05;;
44145;SDS011;29809;52.432;4.780;2022-07-21T13:39:04;3.92;;;3.58;;
44145;SDS011;29809;52.432;4.780;2022-07-21T13:41:30;4.05;;;3.40;;
44145;SDS011;29809;52.432;4.780;2022-07-21T13:43:56;5.13;;;2.50;;
44145;SDS011;29809;52.432;4.780;2022-07-21T13:46:21;5.22;;;2.22;;
44145;SDS011;29809;52.432;4.780;2022-07-21T13:48:47;5.20;;;2.33;;
44145;SDS011;29809;52.432;4.780;2022-07-21T13:51:12;4.38;;;1.88;;
44145;SDS011;29809;52.432;4.780;2022-07-21T13:53:38;4.72;;;1.98;;
44145;SDS011;29809;52.432;4.780;2022-07-21T13:56:04;4.07;;;1.60;;
44145;SDS011;29809;52.432;4.780;2022-07-21T13:58:29;5.95;;;1.73;;
44145;SDS011;29809;52.432;4.780;2022-07-21T14:00:54;6.50;;;1.48;;
44145;SDS011;29809;52.432;4.780;2022-07-21T14:03:20;4.68;;;1.42;;
44145;SDS011;29809;52.432;4.780;2022-07-21T14:05:45;4.50;;;1.23;;
44145;SDS011;29809;52.432;4.780;2022-07-21T14:08:10;4.32;;;1.27;;
44145;SDS011;29809;52.432;4.780;2022-07-21T14:10:35;5.43;;;1.45;;
44145;SDS011;29809;52.432;4.780;2022-07-21T14:13:01;3.47;;;1.30;;
44145;SDS011;29809;52.432;4.780;2022-07-21T14:15:26;3.95;;;1.13;;
44145;SDS011;29809;52.432;4.780;2022-07-21T14:17:51;6.63;;;1.48;;
44145;SDS011;29809;52.432;4.780;2022-07-21T14:20:17;4.63;;;1.58;;
44145;SDS011;29809;52.432;4.780;2022-07-21T14:22:42;4.28;;;1.48;;
44145;SDS011;29809;52.432;4.780;2022-07-21T14:25:07;2.53;;;1.08;;
44145;SDS011;29809;52.432;4.780;2022-07-21T14:27:48;5.15;;;1.77;;
44145;SDS011;29809;52.432;4.780;2022-07-21T14:30:14;5.55;;;1.60;;
44145;SDS011;29809;52.432;4.780;2022-07-21T14:32:40;4.15;;;1.50;;
44145;SDS011;29809;52.432;4.780;2022-07-21T14:35:05;4.10;;;1.35;;
44145;SDS011;29809;52.432;4.780;2022-07-21T14:37:30;5.57;;;1.85;;
44145;SDS011;29809;52.432;4.780;2022-07-21T14:39:56;4.88;;;1.25;;
44145;SDS011;29809;52.432;4.780;2022-07-21T14:42:21;6.95;;;1.92;;
44145;SDS011;29809;52.432;4.780;2022-07-21T14:44:48;4.78;;;0.98;;
44145;SDS011;29809;52.432;4.780;2022-07-21T14:47:14;4.82;;;1.20;;
44145;SDS011;29809;52.432;4.780;2022-07-21T14:49:39;2.97;;;1.20;;
44145;SDS011;29809;52.432;4.780;2022-07-21T14:52:04;8.90;;;1.95;;
44145;SDS011;29809;52.432;4.780;2022-07-21T14:54:30;5.53;;;1.58;;
44145;SDS011;29809;52.432;4.780;2022-07-21T14:56:55;5.10;;;1.50;;
44145;SDS011;29809;52.432;4.780;2022-07-21T14:59:20;3.63;;;1.60;;